Main page
METAR-TAF:

METAR-TAF

Airports :

Humberside, England

Humberside Airport

latitude: 53-35N, longitude: 000-21W, elevation: 31 m

Current weather observation

The report was made 25 minutes ago, at 06:50 UTC
Wind 6 kt from the East
Temperature 18°C
Humidity 77%
Pressure 1021 hPa
Visibility 10 km or more
no clouds below 1500 m and no cumulonimbus

METAR: EGNJ 260650Z 10006KT CAVOK 18/14 Q1021

Time: 08:15 (07:15 UTC)

Forecast

The report was made 2 hours and 23 minutes ago, at 04:52 UTC
Forecast valid from 26 at 06 UTC to 26 at 15 UTC
Wind 3 kt from variable directions
Visibility 10 km or more
no clouds below 1500 m and no cumulonimbus
Becoming
from 26 at 07 UTC to 26 at 10 UTC
Wind 10 kt from the South/Southeast

TAF: EGNJ 260452Z 2606/2615 VRB03KT CAVOK BECMG 2607/2610 15010KT

Weather observations and forecasts of more than 4000 airports (METAR and TAF reports).

The available stations are represented by yellow and red dots on the map.

Hover mouse over dot to see the name of the station.

Then click to see weather observations and forecasts.

To change the map : click on the green buttons with a black cross to zoom in, on the green button with a dash to zoom out, or on the green arrows for adjacent maps.


METAR-TAF: